Lake Ariel, Pennsylvania
Current Conditions -  °F | °C
As of 3:54 AM on Thursday 23 Oct 2014 (Local Time) from KAVP Reporting Station
Overcast Overcast  
Wind Chill: 43°   Ceiling: 1300
Heat Index: 48°   Visibility: 10mi
Dew Point: 43°   Wind: 12mph
Humidity: 83%   Direction: 350°N
Pressure: 29.88"   Gusts: 17mph
Location:  41.45°N, 75.38°W
Report Text: KAVP 230754Z AUTO 35010G15KT 10SM OVC013 09/06 A2988 RMK AO2 RAE33 SLP117 P0000 T00890061
Loading
Personal Weather Stations






























Interactive Weather Map
Tropical Storm Tracking
New forecast layout! Learn more

10-Day Weather Forecast

Advertisements
Track Severe Weather on mobile